Time;durP1;ratioP1;P1;durP2;ratioP2;P2;SDS_P1;SDS_P2;PMS_P1;PMS_P2;Temp;Humidity;BMP_temperature;BMP_pressure;BME280_temperature;BME280_humidity;BME280_pressure;Samples;Min_cycle;Max_cycle;Signal;HPM_P1;HPM_P2
2024/03/02 00:00:51;;;;;;;10.38;7.97;;;;;;;-146.25;100.00;52575.00;2095412;28;37398;-66
2024/03/02 00:01:53;;;;;;;11.77;8.23;;;;;;;-146.25;100.00;52566.91;2095442;28;34417;-67
2024/03/02 00:02:55;;;;;;;9.50;7.40;;;;;;;-146.25;100.00;52546.63;2095919;28;32794;-67
2024/03/02 00:03:57;;;;;;;10.55;7.93;;;;;;;-146.25;100.00;52575.00;2096635;28;20068;-68
2024/03/02 00:04:59;;;;;;;10.27;7.78;;;;;;;-146.25;100.00;52558.78;2095732;28;35072;-67
2024/03/02 00:06:01;;;;;;;9.75;7.22;;;;;;;-146.25;100.00;52562.84;2096141;28;36716;-68
2024/03/02 00:07:03;;;;;;;12.63;7.90;;;;;;;-146.25;100.00;52562.84;2096070;28;28852;-67
2024/03/02 00:08:07;;;;;;;11.43;7.78;;;;;;;-146.25;100.00;52575.00;2096151;28;33496;-64
2024/03/02 00:09:12;;;;;;;10.82;7.43;;;;;;;-146.25;100.00;52542.56;2096157;28;20045;-66
2024/03/02 00:10:20;;;;;;;11.57;7.68;;;;;;;-146.25;100.00;52591.25;2095348;28;38968;-67
2024/03/02 00:11:23;;;;;;;11.88;7.90;;;;;;;-146.25;100.00;52587.19;2088989;28;20046;-68
2024/03/02 00:12:25;;;;;;;11.98;7.97;;;;;;;-146.25;100.00;52573.00;2093728;28;22539;-68
2024/03/02 00:13:29;;;;;;;9.95;7.60;;;;;;;-146.25;100.00;52544.59;2088190;28;21096;-68
2024/03/02 00:14:31;;;;;;;10.38;7.80;;;;;;;-146.25;100.00;52603.41;2088707;28;20076;-68
2024/03/02 00:15:51;;;;;;;9.70;7.70;;;;;;;-146.25;100.00;52562.84;2087523;28;29274;-67
2024/03/02 00:16:56;;;;;;;10.10;7.72;;;;;;;-146.25;100.00;52530.41;2088403;28;20042;-69
2024/03/02 00:17:58;;;;;;;11.15;7.35;;;;;;;-146.25;100.00;52577.03;2086846;28;22011;-68
2024/03/02 00:19:06;;;;;;;12.30;8.05;;;;;;;-146.25;100.00;52558.78;2087401;28;32519;-68
2024/03/02 00:20:09;;;;;;;10.93;7.07;;;;;;;-146.25;100.00;52550.69;2087441;28;20049;-66
2024/03/02 00:21:13;;;;;;;9.60;7.25;;;;;;;-146.25;100.00;52573.00;2086897;28;35053;-66
2024/03/02 00:22:15;;;;;;;11.07;7.43;;;;;;;-146.25;100.00;52575.00;2088100;28;22489;-68
2024/03/02 00:23:19;;;;;;;9.75;7.30;;;;;;;-146.25;100.00;52593.25;2089104;28;33097;-68
2024/03/02 00:24:33;;;;;;;11.20;7.70;;;;;;;-146.25;100.00;52542.56;2089197;28;35376;-68
2024/03/02 00:25:51;;;;;;;9.52;6.95;;;;;;;-146.25;100.00;52579.06;2088495;28;38765;-69
2024/03/02 00:26:55;;;;;;;10.35;7.45;;;;;;;-146.25;100.00;52532.44;2090499;28;34737;-67
2024/03/02 00:27:57;;;;;;;12.00;7.22;;;;;;;-146.25;100.00;52595.28;2088845;28;33775;-68
2024/03/02 00:29:00;;;;;;;10.30;7.90;;;;;;;-146.25;100.00;52532.44;2088876;28;32739;-68
2024/03/02 00:30:37;;;;;;;10.23;7.10;;;;;;;-146.25;100.00;52566.91;2089227;28;30053;-68
2024/03/02 00:31:39;;;;;;;11.80;7.05;;;;;;;-146.25;100.00;52570.97;2088508;28;35823;-68
2024/03/02 00:32:43;;;;;;;12.32;7.22;;;;;;;-146.25;100.00;52579.06;2085456;28;20131;-68
2024/03/02 00:33:47;;;;;;;10.40;6.88;;;;;;;-146.25;100.00;52554.75;2088069;28;34207;-68
2024/03/02 00:34:49;;;;;;;12.30;7.65;;;;;;;-146.25;100.00;52548.66;2087652;28;34975;-68
2024/03/02 00:35:51;;;;;;;11.55;7.38;;;;;;;-146.25;100.00;52579.06;2088697;28;32139;-67
2024/03/02 00:36:57;;;;;;;9.90;7.15;;;;;;;-146.25;100.00;52562.84;2088674;28;37017;-67
2024/03/02 00:38:07;;;;;;;11.35;7.25;;;;;;;-146.25;100.00;52536.50;2089501;28;21727;-68
2024/03/02 00:39:13;;;;;;;10.38;6.65;;;;;;;-146.25;100.00;52562.84;2088752;28;32907;-68
2024/03/02 00:40:19;;;;;;;11.23;7.50;;;;;;;-146.25;100.00;52530.41;2088461;28;33986;-68
2024/03/02 00:41:42;;;;;;;11.25;7.30;;;;;;;-146.25;100.00;52560.81;2081560;28;37802;-68
2024/03/02 00:42:44;;;;;;;10.02;7.25;;;;;;;-146.25;100.00;52534.47;2083742;28;32944;-68
2024/03/02 00:43:57;;;;;;;9.85;7.15;;;;;;;-146.25;100.00;52566.91;2088616;28;26982;-67
2024/03/02 00:45:07;;;;;;;10.07;7.35;;;;;;;-146.25;100.00;52562.84;2096754;28;34388;-68
2024/03/02 00:46:17;;;;;;;10.55;6.88;;;;;;;-146.25;100.00;52581.09;2093887;28;33914;-68
2024/03/02 00:47:19;;;;;;;10.45;7.03;;;;;;;-146.25;100.00;52558.78;2088888;28;20787;-67
2024/03/02 00:48:21;;;;;;;8.45;6.55;;;;;;;-146.25;100.00;52562.84;2088294;28;31895;-68
2024/03/02 00:49:26;;;;;;;9.35;6.63;;;;;;;-146.25;100.00;52577.03;2088861;28;34236;-68
2024/03/02 00:50:28;;;;;;;10.20;7.13;;;;;;;-146.25;100.00;52568.94;2096617;28;33720;-68
2024/03/02 00:51:34;;;;;;;11.15;6.93;;;;;;;-146.25;100.00;52573.00;2096507;28;20057;-67
2024/03/02 00:52:37;;;;;;;9.20;6.95;;;;;;;-146.25;100.00;52589.22;2089399;28;20049;-67
2024/03/02 00:53:39;;;;;;;9.50;7.13;;;;;;;-146.25;100.00;52583.13;2088982;28;36786;-68
2024/03/02 00:54:41;;;;;;;10.02;6.78;;;;;;;-146.25;100.00;52583.13;2088899;28;32511;-68
2024/03/02 00:55:47;;;;;;;9.88;7.18;;;;;;;-146.25;100.00;52530.41;2089366;28;20159;-66
2024/03/02 00:56:49;;;;;;;9.48;6.80;;;;;;;-146.25;100.00;52532.44;2088749;28;34706;-67
2024/03/02 00:57:51;;;;;;;9.82;6.80;;;;;;;-146.25;100.00;52566.91;2088900;28;35619;-68
2024/03/02 00:58:53;;;;;;;9.15;6.93;;;;;;;-146.25;100.00;52534.47;2089117;28;30541;-68
2024/03/02 00:59:57;;;;;;;9.43;6.93;;;;;;;-146.25;100.00;52570.97;2088484;28;35376;-68
2024/03/02 01:00:59;;;;;;;10.38;7.18;;;;;;;-146.25;100.00;52554.75;2087444;28;36465;-68
2024/03/02 01:02:01;;;;;;;8.80;6.65;;;;;;;-146.25;100.00;52591.25;2088711;28;36016;-67
2024/03/02 01:03:05;;;;;;;11.02;7.07;;;;;;;-146.25;100.00;52570.97;2087842;28;34812;-68
2024/03/02 01:04:07;;;;;;;9.57;7.18;;;;;;;-146.25;100.00;52570.97;2088787;28;35050;-67
2024/03/02 01:05:08;;;;;;;9.98;7.45;;;;;;;-146.25;100.00;52568.94;2088646;28;33480;-67
2024/03/02 01:06:10;;;;;;;10.93;7.40;;;;;;;-146.25;100.00;52554.75;2089369;28;33149;-68
2024/03/02 01:07:14;;;;;;;10.18;7.47;;;;;;;-146.25;100.00;52607.47;2088236;28;34212;-67
2024/03/02 01:08:16;;;;;;;9.90;6.45;;;;;;;-146.25;100.00;52542.56;2080472;28;34260;-68
2024/03/02 01:09:17;;;;;;;10.40;7.40;;;;;;;-146.25;100.00;52554.75;2088138;28;36906;-68
2024/03/02 01:10:20;;;;;;;10.88;7.00;;;;;;;-146.25;100.00;52585.16;2088720;28;37516;-67
2024/03/02 01:11:24;;;;;;;11.05;7.90;;;;;;;-146.25;100.00;52550.69;2089001;28;28925;-68
2024/03/02 01:12:28;;;;;;;10.70;7.45;;;;;;;-146.25;100.00;52583.13;2089200;28;22770;-68
2024/03/02 01:13:30;;;;;;;9.82;7.47;;;;;;;-146.25;100.00;52558.78;2088784;28;31633;-67
2024/03/02 01:14:32;;;;;;;10.38;6.80;;;;;;;-146.25;100.00;52546.63;2088769;28;33686;-68
2024/03/02 01:15:34;;;;;;;10.75;7.25;;;;;;;-146.25;100.00;52564.88;2088577;28;25819;-68
2024/03/02 01:16:36;;;;;;;12.30;6.95;;;;;;;-146.25;100.00;52579.06;2089285;28;26234;-68
2024/03/02 01:17:38;;;;;;;9.40;6.95;;;;;;;-146.25;100.00;52575.00;2089027;28;23359;-68
2024/03/02 01:18:39;;;;;;;10.82;7.28;;;;;;;-146.25;100.00;52579.06;2088265;28;30851;-68
2024/03/02 01:19:42;;;;;;;10.07;7.07;;;;;;;-146.25;100.00;52566.91;2089240;28;25105;-68
2024/03/02 01:20:45;;;;;;;9.57;6.88;;;;;;;-146.25;100.00;52550.69;2088918;28;27720;-68
2024/03/02 01:21:47;;;;;;;10.48;6.78;;;;;;;-146.25;100.00;52552.72;2089034;28;27144;-67
2024/03/02 01:22:49;;;;;;;8.88;6.80;;;;;;;-146.25;100.00;52552.72;2089474;28;20025;-66
2024/03/02 01:23:50;;;;;;;10.00;7.13;;;;;;;-146.25;100.00;52570.97;2088717;28;32220;-65
2024/03/02 01:24:52;;;;;;;9.32;6.90;;;;;;;-146.25;100.00;52579.06;2088194;28;33368;-68
2024/03/02 01:25:54;;;;;;;10.73;7.25;;;;;;;-146.25;100.00;52546.63;2088651;28;31993;-68
2024/03/02 01:26:57;;;;;;;9.27;7.25;;;;;;;-146.25;100.00;52526.34;2088013;28;29426;-68
2024/03/02 01:27:58;;;;;;;10.77;7.13;;;;;;;-146.25;100.00;52544.59;2088655;28;20901;-67
2024/03/02 01:29:03;;;;;;;10.73;7.60;;;;;;;-146.25;100.00;52550.69;2088347;28;31828;-68
2024/03/02 01:30:06;;;;;;;9.98;6.75;;;;;;;-146.25;100.00;52570.97;2088030;28;36689;-68
2024/03/02 01:31:08;;;;;;;11.27;7.68;;;;;;;-146.25;100.00;52556.75;2088423;28;34938;-67
2024/03/02 01:32:09;;;;;;;8.93;6.93;;;;;;;-146.25;100.00;52566.91;2088206;28;35949;-66
2024/03/02 01:33:11;;;;;;;8.77;6.88;;;;;;;-146.25;100.00;52550.69;2088264;28;31258;-67
2024/03/02 01:34:13;;;;;;;9.52;7.53;;;;;;;-146.25;100.00;52552.72;2088292;28;36773;-67
2024/03/02 01:35:15;;;;;;;8.25;6.35;;;;;;;-146.25;100.00;52587.19;2088423;28;35689;-67
2024/03/02 01:36:17;;;;;;;10.05;6.88;;;;;;;-146.25;100.00;52575.00;2088596;28;35533;-67
2024/03/02 01:37:18;;;;;;;10.30;7.20;;;;;;;-146.25;100.00;52538.53;2088583;28;33030;-67
2024/03/02 01:38:20;;;;;;;9.55;6.90;;;;;;;-146.25;100.00;52556.75;2089618;28;20055;-67
2024/03/02 01:39:22;;;;;;;9.30;6.57;;;;;;;-146.25;100.00;52540.53;2088463;28;35917;-67
2024/03/02 01:40:26;;;;;;;9.30;6.90;;;;;;;-146.25;100.00;52566.91;2088647;28;32586;-67
2024/03/02 01:41:28;;;;;;;9.82;7.05;;;;;;;-146.25;100.00;52570.97;2088506;28;32639;-67
2024/03/02 01:42:30;;;;;;;9.85;7.00;;;;;;;-146.25;100.00;52570.97;2088444;28;37989;-67
2024/03/02 01:43:32;;;;;;;12.43;7.07;;;;;;;-146.25;100.00;52583.13;2088639;28;35918;-67
2024/03/02 01:44:34;;;;;;;10.40;7.35;;;;;;;-146.25;100.00;52546.63;2089203;28;20034;-67
2024/03/02 01:45:37;;;;;;;9.57;7.45;;;;;;;-146.25;100.00;52573.00;2088488;28;37764;-67
2024/03/02 01:46:39;;;;;;;9.98;7.32;;;;;;;-146.25;100.00;52562.84;2088907;28;32351;-67
2024/03/02 01:47:44;;;;;;;12.52;7.60;;;;;;;-146.25;100.00;52587.19;2088677;28;34143;-67
2024/03/02 01:48:46;;;;;;;9.95;7.10;;;;;;;-146.25;100.00;52562.84;2088168;28;32872;-66
2024/03/02 01:49:50;;;;;;;10.32;7.68;;;;;;;-146.25;100.00;52570.97;2088349;28;31793;-67
2024/03/02 01:50:55;;;;;;;10.85;7.80;;;;;;;-146.25;100.00;52554.75;2088544;28;33544;-67
2024/03/02 01:51:57;;;;;;;10.02;7.32;;;;;;;-146.25;100.00;52562.84;2088267;28;35407;-67
2024/03/02 01:53:00;;;;;;;11.32;7.93;;;;;;;-146.25;100.00;52564.88;2088481;28;36424;-67
2024/03/02 01:54:02;;;;;;;10.35;6.43;;;;;;;-146.25;100.00;52542.56;2088413;28;33517;-67
2024/03/02 01:55:05;;;;;;;10.82;7.93;;;;;;;-146.25;100.00;52530.41;2088326;28;34617;-67
2024/03/02 01:56:07;;;;;;;10.15;7.57;;;;;;;-146.25;100.00;52570.97;2089082;28;20041;-67
2024/03/02 01:57:08;;;;;;;11.52;7.60;;;;;;;-146.25;100.00;52562.84;2088275;28;37796;-67
2024/03/02 01:58:10;;;;;;;12.38;7.68;;;;;;;-146.25;100.00;52532.44;2088765;28;32871;-67
2024/03/02 01:59:15;;;;;;;10.82;7.85;;;;;;;-146.25;100.00;52536.50;2088145;28;35754;-67
2024/03/02 02:00:19;;;;;;;11.07;8.13;;;;;;;-146.25;100.00;52560.81;2096700;28;20029;-67
2024/03/02 02:01:21;;;;;;;11.45;8.57;;;;;;;-146.25;100.00;52585.16;2096455;28;20882;-67
2024/03/02 02:02:22;;;;;;;11.27;8.70;;;;;;;-146.25;100.00;52544.59;2088515;28;35548;-68
2024/03/02 02:03:24;;;;;;;11.73;8.50;;;;;;;-146.25;100.00;52573.00;2088016;28;35521;-67
2024/03/02 02:04:27;;;;;;;10.07;8.00;;;;;;;-146.25;100.00;52601.38;2088115;28;36349;-66
2024/03/02 02:05:29;;;;;;;10.68;8.38;;;;;;;-146.25;100.00;52558.78;2088332;28;20100;-68
2024/03/02 02:06:31;;;;;;;12.38;8.30;;;;;;;-146.25;100.00;52568.94;2088315;28;35654;-65
2024/03/02 02:07:34;;;;;;;12.73;8.98;;;;;;;-146.25;100.00;52566.91;2088546;28;38173;-66
2024/03/02 02:08:39;;;;;;;11.73;8.63;;;;;;;-146.25;100.00;52556.75;2088717;28;33212;-67
2024/03/02 02:09:44;;;;;;;12.05;8.80;;;;;;;-146.25;100.00;52591.25;2088107;28;36223;-66
2024/03/02 02:10:50;;;;;;;11.95;8.80;;;;;;;-146.25;100.00;52556.75;2089033;28;20041;-67
2024/03/02 02:11:52;;;;;;;13.88;9.20;;;;;;;-146.25;100.00;52581.09;2088127;28;22401;-68
2024/03/02 02:12:54;;;;;;;11.85;8.40;;;;;;;-146.25;100.00;52560.81;2088471;28;20422;-66
2024/03/02 02:13:56;;;;;;;12.82;8.93;;;;;;;-146.25;100.00;52550.69;2088892;28;25633;-68
2024/03/02 02:14:57;;;;;;;12.60;8.93;;;;;;;-146.25;100.00;52534.47;2088226;28;23851;-68
2024/03/02 02:16:07;;;;;;;12.50;8.50;;;;;;;-146.25;100.00;52605.44;2088477;28;21465;-68
2024/03/02 02:17:09;;;;;;;12.13;8.90;;;;;;;-146.25;100.00;52526.34;2088254;28;28440;-68
2024/03/02 02:18:11;;;;;;;12.55;9.05;;;;;;;-146.25;100.00;52554.75;2088152;28;20124;-67
2024/03/02 02:19:13;;;;;;;12.48;8.93;;;;;;;-146.25;100.00;52554.75;2088549;28;28133;-66
2024/03/02 02:20:14;;;;;;;12.68;9.30;;;;;;;-146.25;100.00;52526.34;2088275;28;28455;-68
2024/03/02 02:21:16;;;;;;;13.07;9.10;;;;;;;-146.25;100.00;52566.91;2088661;28;28343;-68
2024/03/02 02:22:18;;;;;;;14.75;10.05;;;;;;;-146.25;100.00;52585.16;2088219;28;33052;-67
2024/03/02 02:23:20;;;;;;;12.50;9.05;;;;;;;-146.25;100.00;52530.41;2088422;28;34957;-66
2024/03/02 02:24:21;;;;;;;13.38;9.38;;;;;;;-146.25;100.00;52564.88;2088274;28;35328;-66
2024/03/02 02:25:23;;;;;;;13.20;9.10;;;;;;;-146.25;100.00;52546.63;2089462;28;20853;-67
2024/03/02 02:26:25;;;;;;;13.82;9.18;;;;;;;-146.25;100.00;52629.75;2087990;28;35282;-67
2024/03/02 02:27:27;;;;;;;14.10;9.18;;;;;;;-146.25;100.00;52528.38;2088217;28;37027;-68
2024/03/02 02:28:28;;;;;;;12.25;8.82;;;;;;;-146.25;100.00;52556.75;2088202;28;35118;-68
2024/03/02 02:29:30;;;;;;;13.00;9.50;;;;;;;-146.25;100.00;52585.16;2087890;28;34292;-68
2024/03/02 02:30:32;;;;;;;13.02;9.25;;;;;;;-146.25;100.00;52550.69;2088567;28;33899;-68
2024/03/02 02:31:41;;;;;;;13.57;9.38;;;;;;;-146.25;100.00;52570.97;2087811;28;36702;-67
2024/03/02 02:32:43;;;;;;;12.77;9.20;;;;;;;-146.25;100.00;52550.69;2088464;28;35808;-68
2024/03/02 02:33:48;;;;;;;11.43;8.68;;;;;;;-146.25;100.00;52591.25;2087923;28;33902;-68
2024/03/02 02:34:52;;;;;;;13.52;9.23;;;;;;;-146.25;100.00;52575.00;2087959;28;34603;-67
2024/03/02 02:35:54;;;;;;;13.35;8.70;;;;;;;-146.25;100.00;52575.00;2087871;28;34654;-67
2024/03/02 02:36:56;;;;;;;12.43;8.85;;;;;;;-146.25;100.00;52575.00;2088428;28;36856;-67
2024/03/02 02:38:01;;;;;;;13.93;8.27;;;;;;;-146.25;100.00;52546.63;2088113;28;33173;-68
2024/03/02 02:39:07;;;;;;;11.88;8.98;;;;;;;-146.25;100.00;52587.19;2087824;28;37508;-68
2024/03/02 02:40:10;;;;;;;11.73;8.95;;;;;;;-146.25;100.00;52558.78;2079005;28;40250;-68
2024/03/02 02:41:12;;;;;;;13.73;8.65;;;;;;;-146.25;100.00;52581.09;2079318;28;33904;-68
2024/03/02 02:42:14;;;;;;;11.90;8.35;;;;;;;-146.25;100.00;52554.75;2079047;28;36945;-67
2024/03/02 02:43:16;;;;;;;14.73;8.85;;;;;;;-146.25;100.00;52579.06;2079676;28;35144;-67
2024/03/02 02:44:18;;;;;;;13.68;8.98;;;;;;;-146.25;100.00;52568.94;2087320;28;35320;-67
2024/03/02 02:45:20;;;;;;;12.85;8.82;;;;;;;-146.25;100.00;52579.06;2079076;28;31209;-67
2024/03/02 02:46:22;;;;;;;11.55;8.60;;;;;;;-146.25;100.00;52575.00;2080172;28;34109;-68
2024/03/02 02:47:24;;;;;;;11.07;8.50;;;;;;;-146.25;100.00;52570.97;2079972;28;36803;-68
2024/03/02 02:48:25;;;;;;;12.98;8.50;;;;;;;-146.25;100.00;52597.31;2079918;28;24647;-67
2024/03/02 02:49:27;;;;;;;10.63;7.70;;;;;;;-146.25;100.00;52585.16;2080019;28;30681;-67
2024/03/02 02:50:29;;;;;;;10.98;7.93;;;;;;;-146.25;100.00;52570.97;2087918;28;20897;-68
2024/03/02 02:51:31;;;;;;;10.07;8.07;;;;;;;-146.25;100.00;52595.28;2087328;28;37588;-67
2024/03/02 02:52:39;;;;;;;10.85;8.10;;;;;;;-146.25;100.00;52601.38;2079723;28;34492;-67
2024/03/02 02:53:41;;;;;;;11.65;7.97;;;;;;;-146.25;100.00;52587.19;2080600;28;33579;-67
2024/03/02 02:54:43;;;;;;;14.90;9.15;;;;;;;-146.25;100.00;52530.41;2079852;28;36581;-67
2024/03/02 02:55:45;;;;;;;12.10;8.35;;;;;;;-146.25;100.00;52566.91;2079414;28;34574;-68
2024/03/02 02:56:49;;;;;;;12.05;8.25;;;;;;;-146.25;100.00;52544.59;2079874;28;32807;-67
2024/03/02 02:57:50;;;;;;;11.27;7.75;;;;;;;-146.25;100.00;52540.53;2079363;28;34655;-68
2024/03/02 02:58:52;;;;;;;11.73;8.13;;;;;;;-146.25;100.00;52558.78;2079811;28;33062;-67
2024/03/02 02:59:54;;;;;;;10.70;7.68;;;;;;;-146.25;100.00;52579.06;2079794;28;38420;-68
2024/03/02 03:00:56;;;;;;;10.25;7.97;;;;;;;-146.25;100.00;52570.97;2085742;28;35145;-68
2024/03/02 03:01:58;;;;;;;11.02;8.13;;;;;;;-146.25;100.00;52554.75;2088077;28;34288;-68
2024/03/02 03:03:02;;;;;;;11.20;7.82;;;;;;;-146.25;100.00;52568.94;2087885;28;36480;-68
2024/03/02 03:04:04;;;;;;;10.07;7.88;;;;;;;-146.25;100.00;52591.25;2087377;28;35417;-68
2024/03/02 03:05:06;;;;;;;11.23;8.70;;;;;;;-146.25;100.00;52510.13;2090913;28;33859;-68
2024/03/02 03:06:08;;;;;;;10.43;7.95;;;;;;;-146.25;100.00;52597.31;2087242;28;37878;-68
2024/03/02 03:07:10;;;;;;;10.68;7.70;;;;;;;-146.25;100.00;52554.75;2086997;28;34441;-66
2024/03/02 03:08:11;;;;;;;9.15;7.30;;;;;;;-146.25;100.00;52566.91;2079419;28;33475;-67
2024/03/02 03:09:13;;;;;;;10.23;7.97;;;;;;;-146.25;100.00;52562.84;2079304;28;36491;-67
2024/03/02 03:10:15;;;;;;;10.10;7.40;;;;;;;-146.25;100.00;52534.47;2079242;28;35259;-68
2024/03/02 03:11:17;;;;;;;10.57;7.68;;;;;;;-146.25;100.00;52554.75;2087399;28;23781;-68
2024/03/02 03:12:19;;;;;;;10.23;8.02;;;;;;;-146.25;100.00;52534.47;2087504;28;25763;-68
2024/03/02 03:13:21;;;;;;;11.45;8.10;;;;;;;-146.25;100.00;52593.25;2080284;28;23155;-68
2024/03/02 03:14:23;;;;;;;12.00;7.68;;;;;;;-146.25;100.00;52570.97;2080156;28;21739;-68
2024/03/02 03:15:25;;;;;;;10.13;7.90;;;;;;;-146.25;100.00;52548.66;2080614;28;20045;-66
2024/03/02 03:16:27;;;;;;;10.18;7.80;;;;;;;-146.25;100.00;52568.94;2079858;28;31209;-67
2024/03/02 03:17:31;;;;;;;10.52;8.73;;;;;;;-146.25;100.00;52593.25;2079544;28;32467;-68
2024/03/02 03:18:33;;;;;;;10.25;7.93;;;;;;;-146.25;100.00;52575.00;2079488;28;26598;-67
2024/03/02 03:19:35;;;;;;;10.13;7.80;;;;;;;-146.25;100.00;52575.00;2079330;28;37716;-67
2024/03/02 03:20:37;;;;;;;10.95;8.05;;;;;;;-146.25;100.00;52597.31;2080350;28;20034;-68
2024/03/02 03:21:39;;;;;;;11.18;7.60;;;;;;;-146.25;100.00;52603.41;2079509;28;37092;-67
2024/03/02 03:22:40;;;;;;;10.50;7.60;;;;;;;-146.25;100.00;52558.78;2079782;28;36803;-68
2024/03/02 03:23:42;;;;;;;10.05;7.70;;;;;;;-146.25;100.00;52550.69;2080210;28;20026;-66
2024/03/02 03:24:45;;;;;;;11.90;8.65;;;;;;;-146.25;100.00;52548.66;2079255;28;36542;-66
2024/03/02 03:25:47;;;;;;;10.90;8.15;;;;;;;-146.25;100.00;52581.09;2079488;28;35861;-67
2024/03/02 03:26:49;;;;;;;10.55;7.93;;;;;;;-146.25;100.00;52601.38;2079211;28;34254;-67
2024/03/02 03:27:52;;;;;;;12.27;8.20;;;;;;;-146.25;100.00;52556.75;2078944;28;37963;-67
2024/03/02 03:28:54;;;;;;;10.98;8.18;;;;;;;-146.25;100.00;52585.16;2080329;28;20038;-66
2024/03/02 03:29:56;;;;;;;10.98;8.40;;;;;;;-146.25;100.00;52583.13;2079592;28;35048;-66
2024/03/02 03:30:57;;;;;;;12.45;8.55;;;;;;;-146.25;100.00;52566.91;2079876;28;31861;-66
2024/03/02 03:31:59;;;;;;;9.70;7.57;;;;;;;-146.25;100.00;52577.03;2080057;28;20800;-68
2024/03/02 03:33:01;;;;;;;11.18;8.23;;;;;;;-146.25;100.00;52595.28;2079683;28;37498;-68
2024/03/02 03:34:05;;;;;;;11.75;8.73;;;;;;;-146.25;100.00;52564.88;2079322;28;34403;-68
2024/03/02 03:35:08;;;;;;;11.93;8.65;;;;;;;-146.25;100.00;52562.84;2084975;28;20937;-67
2024/03/02 03:36:12;;;;;;;9.68;7.68;;;;;;;-146.25;100.00;52554.75;2087412;28;35536;-68
2024/03/02 03:37:18;;;;;;;10.40;7.95;;;;;;;-146.25;100.00;52583.13;2087793;28;34729;-67
2024/03/02 03:38:20;;;;;;;11.80;7.65;;;;;;;-146.25;100.00;52575.00;2087316;28;34187;-67
2024/03/02 03:39:22;;;;;;;10.18;8.07;;;;;;;-146.25;100.00;52564.88;2079710;28;31325;-67
2024/03/02 03:40:24;;;;;;;10.75;8.50;;;;;;;-146.25;100.00;52581.09;2086953;28;35152;-67
2024/03/02 03:41:26;;;;;;;11.73;8.80;;;;;;;-146.25;100.00;52566.91;2087762;28;33989;-68
2024/03/02 03:42:28;;;;;;;10.55;8.25;;;;;;;-146.25;100.00;52550.69;2095524;28;34570;-67
2024/03/02 03:43:32;;;;;;;12.13;8.52;;;;;;;-146.25;100.00;52542.56;2095073;28;34536;-67
2024/03/02 03:44:34;;;;;;;10.73;8.00;;;;;;;-146.25;100.00;52550.69;2087750;28;33625;-67
2024/03/02 03:45:35;;;;;;;11.48;8.80;;;;;;;-146.25;100.00;52566.91;2102816;22;35240;-62
2024/03/02 03:46:37;;;;;;;11.88;8.55;;;;;;;-146.25;100.00;52579.06;2098988;28;29916;-62
2024/03/02 03:47:39;;;;;;;11.23;8.55;;;;;;;-146.25;100.00;52575.00;2095845;28;38551;-62
2024/03/02 03:48:41;;;;;;;11.05;8.32;;;;;;;-146.25;100.00;52579.06;2095387;28;35331;-62
2024/03/02 03:49:45;;;;;;;10.85;8.60;;;;;;;-146.25;100.00;52558.78;2095443;28;35142;-62
2024/03/02 03:50:49;;;;;;;11.00;8.27;;;;;;;-146.25;100.00;52522.28;2096603;28;20099;-62
2024/03/02 03:51:51;;;;;;;11.23;8.35;;;;;;;-146.25;100.00;52611.50;2095893;28;38216;-61
2024/03/02 03:52:53;;;;;;;10.52;8.20;;;;;;;-146.25;100.00;52573.00;2096198;28;33920;-62
2024/03/02 03:53:54;;;;;;;13.50;8.63;;;;;;;-146.25;100.00;52591.25;2096096;28;33952;-62
2024/03/02 03:54:56;;;;;;;17.55;8.75;;;;;;;-146.25;100.00;52560.81;2095823;28;32839;-62
2024/03/02 03:56:02;;;;;;;10.98;8.82;;;;;;;-146.25;100.00;52589.22;2096463;28;20779;-62
2024/03/02 03:57:06;;;;;;;12.18;8.75;;;;;;;-146.25;100.00;52556.75;2097316;28;35901;-62
2024/03/02 03:58:08;;;;;;;12.05;9.45;;;;;;;-146.25;100.00;52564.88;2097418;28;32193;-62
2024/03/02 03:59:10;;;;;;;12.65;9.40;;;;;;;-146.25;100.00;52575.00;2097794;28;36572;-62
2024/03/02 04:00:12;;;;;;;12.63;9.07;;;;;;;-146.25;100.00;52597.31;2098026;28;33686;-62
2024/03/02 04:01:14;;;;;;;12.63;9.95;;;;;;;-146.25;100.00;52583.13;2097312;28;34181;-62
2024/03/02 04:02:16;;;;;;;12.25;9.07;;;;;;;-146.25;100.00;52591.25;2097576;28;37046;-62
2024/03/02 04:03:17;;;;;;;12.68;9.65;;;;;;;-146.25;100.00;52568.94;2098261;28;20541;-62
2024/03/02 04:04:19;;;;;;;10.90;8.50;;;;;;;-146.25;100.00;52579.06;2097146;28;33902;-63
2024/03/02 04:05:21;;;;;;;11.05;8.88;;;;;;;-146.25;100.00;52575.00;2097255;28;34252;-62
2024/03/02 04:06:25;;;;;;;11.23;9.13;;;;;;;-146.25;100.00;52554.75;2097625;28;34959;-62
2024/03/02 04:07:27;;;;;;;12.07;8.80;;;;;;;-146.25;100.00;52583.13;2097366;28;35522;-62
2024/03/02 04:08:31;;;;;;;12.00;8.73;;;;;;;-146.25;100.00;52566.91;2098327;28;20164;-62
2024/03/02 04:09:33;;;;;;;12.73;9.13;;;;;;;-146.25;100.00;52587.19;2097623;28;30136;-62
2024/03/02 04:10:35;;;;;;;11.50;8.80;;;;;;;-146.25;100.00;52568.94;2097630;28;34215;-62
2024/03/02 04:11:36;;;;;;;11.10;8.98;;;;;;;-146.25;100.00;52566.91;2098018;28;26527;-62
2024/03/02 04:12:41;;;;;;;12.20;9.68;;;;;;;-146.25;100.00;52599.34;2097735;28;25329;-62
2024/03/02 04:13:42;;;;;;;11.32;8.80;;;;;;;-146.25;100.00;52587.19;2097742;28;27278;-62
2024/03/02 04:14:44;;;;;;;12.00;9.13;;;;;;;-146.25;100.00;52546.63;2097479;28;35812;-62
2024/03/02 04:15:46;;;;;;;12.10;9.70;;;;;;;-146.25;100.00;52562.84;2097551;28;35402;-62
2024/03/02 04:16:48;;;;;;;16.60;9.23;;;;;;;-146.25;100.00;52530.41;2100872;28;21991;-63
2024/03/02 04:17:52;;;;;;;13.38;9.57;;;;;;;-146.25;100.00;52597.31;2104737;28;35918;-61
2024/03/02 04:18:54;;;;;;;10.82;8.82;;;;;;;-146.25;100.00;52526.34;2104473;28;33041;-62
2024/03/02 04:19:56;;;;;;;12.30;8.93;;;;;;;-146.25;100.00;52556.75;2097000;28;37004;-62
2024/03/02 04:21:18;;;;;;;11.80;8.88;;;;;;;-146.25;100.00;52556.75;2097545;28;30726;-62
2024/03/02 04:22:22;;;;;;;12.35;9.20;;;;;;;-146.25;100.00;52560.81;2098170;28;33425;-61
2024/03/02 04:23:26;;;;;;;12.57;8.82;;;;;;;-146.25;100.00;52564.88;2097151;28;37178;-61
2024/03/02 04:24:28;;;;;;;11.52;8.77;;;;;;;-146.25;100.00;52605.44;2098075;28;20160;-62
2024/03/02 04:25:32;;;;;;;10.70;8.57;;;;;;;-146.25;100.00;52552.72;2097880;28;20080;-62
2024/03/02 04:26:34;;;;;;;11.80;9.13;;;;;;;-146.25;100.00;52601.38;2104593;28;38776;-62
2024/03/02 04:27:36;;;;;;;11.23;8.75;;;;;;;-146.25;100.00;52591.25;2104989;28;33149;-62
2024/03/02 04:28:40;;;;;;;11.07;9.13;;;;;;;-146.25;100.00;52548.66;2097420;28;35704;-62
2024/03/02 04:29:42;;;;;;;12.73;9.77;;;;;;;-146.25;100.00;52530.41;2097373;28;28757;-62
2024/03/02 04:30:43;;;;;;;14.18;9.63;;;;;;;-146.25;100.00;52534.47;2097299;28;35033;-62
2024/03/02 04:31:45;;;;;;;13.15;10.00;;;;;;;-146.25;100.00;52579.06;2097423;28;33420;-61
2024/03/02 04:32:48;;;;;;;12.18;9.25;;;;;;;-146.25;100.00;52542.56;2097584;28;27538;-62
2024/03/02 04:33:50;;;;;;;12.82;9.48;;;;;;;-146.25;100.00;52589.22;2097006;28;32950;-62
2024/03/02 04:34:52;;;;;;;13.15;9.63;;;;;;;-146.25;100.00;52564.88;2096643;28;37155;-61
2024/03/02 04:35:57;;;;;;;13.65;9.82;;;;;;;-146.25;100.00;52570.97;2096792;28;35223;-62
2024/03/02 04:36:59;;;;;;;11.43;8.68;;;;;;;-146.25;100.00;52546.63;2097356;28;35488;-62
2024/03/02 04:38:01;;;;;;;11.13;9.13;;;;;;;-146.25;100.00;52593.25;2097196;28;32980;-62
2024/03/02 04:39:02;;;;;;;11.35;9.27;;;;;;;-146.25;100.00;52552.72;2097310;28;32366;-62
2024/03/02 04:40:09;;;;;;;12.65;9.32;;;;;;;-146.25;100.00;52579.06;2097207;28;34527;-62
2024/03/02 04:41:10;;;;;;;11.50;8.93;;;;;;;-146.25;100.00;52568.94;2097304;28;35920;-62
2024/03/02 04:42:17;;;;;;;12.52;9.43;;;;;;;-146.25;100.00;52550.69;2097248;28;34690;-62
2024/03/02 04:43:19;;;;;;;13.18;9.50;;;;;;;-146.25;100.00;52570.97;2097531;28;32226;-62
2024/03/02 04:44:21;;;;;;;13.00;9.27;;;;;;;-146.25;100.00;52560.81;2097579;28;28366;-62